CES8667 ZSWZ-VMMC
Flight info
| Callsign | CES8667 |
|---|---|
| Flight time | N/A |
| Altitude | 36100 |
| Route | RUPOX5X RUPOX B221 LJG A470 BEBEM A470 DOTMI DCT SAMMI J101 SMT |
| Aircraft | B77W/H-SDE1E2E3FGHIJ2J3J4J5M1RWXY/LB1D1 |
Departure
| Time | N/A |
|---|---|
| Airport | Wenzhou Longwan International Airport (ZSWZ) |
Arrival
| Time | 2026-04-20 14:48 |
|---|---|
| Airport | Macau International Airport (VMMC) |
| Time | Latitude | Longitude | Altitude | Speed | Heading |
|---|---|---|---|---|---|
| 2026-04-20 14:48 | 22.16554 | 113.58600 | 206 ft | 143 kts | 164° |
| 2026-04-20 14:48 | 22.15585 | 113.58922 | 64 ft | 148 kts | 160° |
| 2026-04-20 14:48 | 22.14650 | 113.59257 | 34 ft | 126 kts | 161° |
| 2026-04-20 14:48 | 22.14302 | 113.59385 | 34 ft | 9 kts | 161° |
| 2026-04-20 14:49 | 22.14316 | 113.59380 | 34 ft | 7 kts | 161° |
| 2026-04-20 14:49 | 22.14291 | 113.59389 | 34 ft | 6 kts | 161° |
| 2026-04-20 14:49 | 22.14247 | 113.59404 | 35 ft | 8 kts | 167° |
| 2026-04-20 14:49 | 22.14157 | 113.59355 | 35 ft | 18 kts | 243° |
| 2026-04-20 14:50 | 22.14193 | 113.59240 | 33 ft | 19 kts | 326° |
| 2026-04-20 14:50 | 22.14312 | 113.59189 | 33 ft | 19 kts | 341° |
| 2026-04-20 14:50 | 22.14435 | 113.59144 | 33 ft | 19 kts | 341° |
| 2026-04-20 14:50 | 22.14557 | 113.59100 | 33 ft | 19 kts | 341° |
| 2026-04-20 14:51 | 22.14679 | 113.59056 | 33 ft | 19 kts | 341° |
| 2026-04-20 14:51 | 22.14772 | 113.58964 | 34 ft | 19 kts | 304° |
| 2026-04-20 14:51 | 22.14844 | 113.58848 | 33 ft | 19 kts | 304° |
| 2026-04-20 14:51 | 22.14916 | 113.58732 | 33 ft | 19 kts | 303° |
| 2026-04-20 14:52 | 22.14988 | 113.58616 | 33 ft | 19 kts | 303° |
| 2026-04-20 14:52 | 22.15060 | 113.58500 | 33 ft | 19 kts | 303° |
| 2026-04-20 14:52 | 22.15131 | 113.58384 | 33 ft | 19 kts | 303° |
| 2026-04-20 14:52 | 22.15203 | 113.58268 | 33 ft | 19 kts | 303° |
| 2026-04-20 14:53 | 22.15275 | 113.58152 | 33 ft | 19 kts | 303° |
| 2026-04-20 14:53 | 22.15346 | 113.58037 | 33 ft | 15 kts | 303° |
| 2026-04-20 14:53 | 22.15406 | 113.57939 | 33 ft | 16 kts | 303° |
| 2026-04-20 14:53 | 22.15469 | 113.57837 | 34 ft | 17 kts | 303° |
| 2026-04-20 14:54 | 22.15534 | 113.57732 | 34 ft | 17 kts | 304° |
| 2026-04-20 14:54 | 22.15586 | 113.57648 | 34 ft | 8 kts | 304° |
| 2026-04-20 14:54 | 22.15607 | 113.57592 | 34 ft | 9 kts | 271° |
| 2026-04-20 14:54 | 22.15589 | 113.57531 | 34 ft | 9 kts | 240° |
| 2026-04-20 14:55 | 22.15560 | 113.57479 | 34 ft | 7 kts | 241° |
| 2026-04-20 14:55 | 22.15543 | 113.57440 | 34 ft | 0 kts | 266° |
| 2026-04-20 14:55 | 22.15544 | 113.57437 | 34 ft | 1 kts | 271° |
| 2026-04-20 14:55 | 22.15544 | 113.57424 | 34 ft | 2 kts | 271° |
| 2026-04-20 14:56 | 22.15551 | 113.57404 | 34 ft | 3 kts | 295° |
| 2026-04-20 14:56 | 22.15571 | 113.57385 | 34 ft | 5 kts | 328° |
| 2026-04-20 14:56 | 22.15582 | 113.57379 | 34 ft | 1 kts | 332° |
| 2026-04-20 14:56 | 22.15588 | 113.57375 | 34 ft | 0 kts | 332° |